sensor_id;sensor_type;location;lat;lon;timestamp;P1;durP1;ratioP1;P2;durP2;ratioP2
71979;SDS011;59853;48.190;11.860;2022-07-23T00:01:29;7.68;;;5.55;;
71979;SDS011;59853;48.190;11.860;2022-07-23T00:03:55;7.50;;;4.70;;
71979;SDS011;59853;48.190;11.860;2022-07-23T00:06:21;5.90;;;4.43;;
71979;SDS011;59853;48.190;11.860;2022-07-23T00:08:47;7.63;;;4.90;;
71979;SDS011;59853;48.190;11.860;2022-07-23T00:11:13;7.63;;;4.47;;
71979;SDS011;59853;48.190;11.860;2022-07-23T00:13:38;6.28;;;4.70;;
71979;SDS011;59853;48.190;11.860;2022-07-23T00:16:04;7.95;;;4.60;;
71979;SDS011;59853;48.190;11.860;2022-07-23T00:18:30;7.22;;;4.53;;
71979;SDS011;59853;48.190;11.860;2022-07-23T00:20:55;6.10;;;4.43;;
71979;SDS011;59853;48.190;11.860;2022-07-23T00:23:20;7.05;;;4.60;;
71979;SDS011;59853;48.190;11.860;2022-07-23T00:25:46;7.07;;;5.28;;
71979;SDS011;59853;48.190;11.860;2022-07-23T00:28:11;8.40;;;4.88;;
71979;SDS011;59853;48.190;11.860;2022-07-23T00:30:37;5.57;;;4.18;;
71979;SDS011;59853;48.190;11.860;2022-07-23T00:33:03;8.45;;;5.32;;
71979;SDS011;59853;48.190;11.860;2022-07-23T00:35:32;6.00;;;4.68;;
71979;SDS011;59853;48.190;11.860;2022-07-23T00:37:59;6.70;;;4.53;;
71979;SDS011;59853;48.190;11.860;2022-07-23T00:40:25;5.97;;;4.45;;
71979;SDS011;59853;48.190;11.860;2022-07-23T00:42:50;6.10;;;4.57;;
71979;SDS011;59853;48.190;11.860;2022-07-23T00:45:16;7.07;;;4.80;;
71979;SDS011;59853;48.190;11.860;2022-07-23T00:47:42;5.35;;;4.30;;
71979;SDS011;59853;48.190;11.860;2022-07-23T00:50:07;6.43;;;5.13;;
71979;SDS011;59853;48.190;11.860;2022-07-23T00:52:34;6.18;;;4.55;;
71979;SDS011;59853;48.190;11.860;2022-07-23T00:54:59;7.82;;;5.05;;
71979;SDS011;59853;48.190;11.860;2022-07-23T00:57:25;10.02;;;5.03;;
71979;SDS011;59853;48.190;11.860;2022-07-23T00:59:51;7.47;;;4.97;;
71979;SDS011;59853;48.190;11.860;2022-07-23T01:02:16;9.05;;;5.10;;
71979;SDS011;59853;48.190;11.860;2022-07-23T01:04:41;6.18;;;4.53;;
71979;SDS011;59853;48.190;11.860;2022-07-23T01:07:07;6.75;;;4.75;;
71979;SDS011;59853;48.190;11.860;2022-07-23T01:09:32;10.10;;;5.18;;
71979;SDS011;59853;48.190;11.860;2022-07-23T01:11:58;6.45;;;5.00;;
71979;SDS011;59853;48.190;11.860;2022-07-23T01:14:24;6.47;;;4.57;;
71979;SDS011;59853;48.190;11.860;2022-07-23T01:16:49;6.18;;;4.70;;
71979;SDS011;59853;48.190;11.860;2022-07-23T01:19:15;6.50;;;4.53;;
71979;SDS011;59853;48.190;11.860;2022-07-23T01:21:42;6.40;;;4.60;;
71979;SDS011;59853;48.190;11.860;2022-07-23T01:24:09;6.13;;;4.55;;
71979;SDS011;59853;48.190;11.860;2022-07-23T01:26:35;7.03;;;4.57;;
71979;SDS011;59853;48.190;11.860;2022-07-23T01:29:01;8.80;;;4.88;;
71979;SDS011;59853;48.190;11.860;2022-07-23T01:31:27;7.47;;;4.80;;
71979;SDS011;59853;48.190;11.860;2022-07-23T01:33:52;6.15;;;4.60;;
71979;SDS011;59853;48.190;11.860;2022-07-23T01:36:18;8.15;;;4.45;;
71979;SDS011;59853;48.190;11.860;2022-07-23T01:38:43;11.27;;;5.68;;
71979;SDS011;59853;48.190;11.860;2022-07-23T01:41:08;12.10;;;5.57;;
71979;SDS011;59853;48.190;11.860;2022-07-23T01:43:34;16.40;;;6.88;;
71979;SDS011;59853;48.190;11.860;2022-07-23T01:45:59;12.10;;;5.53;;
71979;SDS011;59853;48.190;11.860;2022-07-23T01:48:25;13.63;;;5.32;;
71979;SDS011;59853;48.190;11.860;2022-07-23T01:50:50;8.93;;;4.93;;
71979;SDS011;59853;48.190;11.860;2022-07-23T01:53:16;9.02;;;5.65;;
71979;SDS011;59853;48.190;11.860;2022-07-23T01:55:41;9.52;;;4.45;;
71979;SDS011;59853;48.190;11.860;2022-07-23T01:58:07;10.30;;;4.07;;
71979;SDS011;59853;48.190;11.860;2022-07-23T02:00:32;10.15;;;3.90;;
71979;SDS011;59853;48.190;11.860;2022-07-23T02:02:58;6.45;;;3.83;;
71979;SDS011;59853;48.190;11.860;2022-07-23T02:05:24;6.63;;;3.38;;
71979;SDS011;59853;48.190;11.860;2022-07-23T02:07:49;9.23;;;3.55;;
71979;SDS011;59853;48.190;11.860;2022-07-23T02:10:15;8.93;;;3.05;;
71979;SDS011;59853;48.190;11.860;2022-07-23T02:12:40;6.85;;;3.08;;
71979;SDS011;59853;48.190;11.860;2022-07-23T02:15:06;5.30;;;3.45;;
71979;SDS011;59853;48.190;11.860;2022-07-23T02:17:31;3.38;;;2.47;;
71979;SDS011;59853;48.190;11.860;2022-07-23T02:19:57;7.22;;;3.25;;
71979;SDS011;59853;48.190;11.860;2022-07-23T02:22:22;5.32;;;2.90;;
71979;SDS011;59853;48.190;11.860;2022-07-23T02:24:47;6.68;;;3.42;;
71979;SDS011;59853;48.190;11.860;2022-07-23T02:27:13;6.03;;;2.78;;
71979;SDS011;59853;48.190;11.860;2022-07-23T02:29:38;6.53;;;2.92;;
71979;SDS011;59853;48.190;11.860;2022-07-23T02:32:04;4.25;;;2.50;;
71979;SDS011;59853;48.190;11.860;2022-07-23T02:34:29;4.93;;;2.85;;
71979;SDS011;59853;48.190;11.860;2022-07-23T02:36:54;7.85;;;3.00;;
71979;SDS011;59853;48.190;11.860;2022-07-23T02:39:20;5.43;;;2.55;;
71979;SDS011;59853;48.190;11.860;2022-07-23T02:41:45;4.43;;;2.30;;
71979;SDS011;59853;48.190;11.860;2022-07-23T02:44:10;3.58;;;2.33;;
71979;SDS011;59853;48.190;11.860;2022-07-23T02:46:36;6.15;;;2.47;;
71979;SDS011;59853;48.190;11.860;2022-07-23T02:49:01;3.22;;;2.10;;
71979;SDS011;59853;48.190;11.860;2022-07-23T02:51:27;6.72;;;2.00;;
71979;SDS011;59853;48.190;11.860;2022-07-23T02:53:52;3.50;;;1.60;;
71979;SDS011;59853;48.190;11.860;2022-07-23T02:56:18;4.10;;;1.30;;
71979;SDS011;59853;48.190;11.860;2022-07-23T02:58:43;3.17;;;1.50;;
71979;SDS011;59853;48.190;11.860;2022-07-23T03:01:08;2.25;;;1.42;;
71979;SDS011;59853;48.190;11.860;2022-07-23T03:03:34;3.00;;;1.58;;
71979;SDS011;59853;48.190;11.860;2022-07-23T03:05:59;3.53;;;1.67;;
71979;SDS011;59853;48.190;11.860;2022-07-23T03:08:25;4.85;;;1.75;;
71979;SDS011;59853;48.190;11.860;2022-07-23T03:10:50;4.03;;;1.73;;
71979;SDS011;59853;48.190;11.860;2022-07-23T03:13:15;2.85;;;1.60;;
71979;SDS011;59853;48.190;11.860;2022-07-23T03:15:41;4.30;;;1.50;;
71979;SDS011;59853;48.190;11.860;2022-07-23T03:18:06;3.00;;;1.52;;
71979;SDS011;59853;48.190;11.860;2022-07-23T03:20:31;3.65;;;1.75;;
71979;SDS011;59853;48.190;11.860;2022-07-23T03:22:57;3.40;;;2.10;;
71979;SDS011;59853;48.190;11.860;2022-07-23T03:25:22;3.00;;;1.88;;
71979;SDS011;59853;48.190;11.860;2022-07-23T03:27:47;3.55;;;1.83;;
71979;SDS011;59853;48.190;11.860;2022-07-23T03:30:13;3.88;;;1.77;;
71979;SDS011;59853;48.190;11.860;2022-07-23T03:32:38;2.72;;;1.83;;
71979;SDS011;59853;48.190;11.860;2022-07-23T03:35:04;4.20;;;2.35;;
71979;SDS011;59853;48.190;11.860;2022-07-23T03:37:30;3.83;;;2.13;;
71979;SDS011;59853;48.190;11.860;2022-07-23T03:39:55;3.72;;;2.00;;
71979;SDS011;59853;48.190;11.860;2022-07-23T03:42:20;3.53;;;2.00;;
71979;SDS011;59853;48.190;11.860;2022-07-23T03:44:46;4.60;;;2.20;;
71979;SDS011;59853;48.190;11.860;2022-07-23T03:47:11;3.08;;;1.95;;
71979;SDS011;59853;48.190;11.860;2022-07-23T03:49:36;4.15;;;2.10;;
71979;SDS011;59853;48.190;11.860;2022-07-23T03:52:02;3.63;;;2.20;;
71979;SDS011;59853;48.190;11.860;2022-07-23T03:54:27;4.00;;;2.35;;
71979;SDS011;59853;48.190;11.860;2022-07-23T03:56:53;4.07;;;2.50;;
71979;SDS011;59853;48.190;11.860;2022-07-23T03:59:18;4.10;;;2.65;;
71979;SDS011;59853;48.190;11.860;2022-07-23T04:01:43;4.75;;;2.20;;
71979;SDS011;59853;48.190;11.860;2022-07-23T04:04:09;5.22;;;2.50;;
71979;SDS011;59853;48.190;11.860;2022-07-23T04:06:35;4.78;;;2.45;;
71979;SDS011;59853;48.190;11.860;2022-07-23T04:09:00;4.70;;;2.78;;
71979;SDS011;59853;48.190;11.860;2022-07-23T04:11:26;3.75;;;2.38;;
71979;SDS011;59853;48.190;11.860;2022-07-23T04:13:52;4.55;;;2.83;;
71979;SDS011;59853;48.190;11.860;2022-07-23T04:16:17;4.68;;;2.90;;
71979;SDS011;59853;48.190;11.860;2022-07-23T04:18:42;4.20;;;2.88;;
71979;SDS011;59853;48.190;11.860;2022-07-23T04:21:08;4.85;;;2.63;;
71979;SDS011;59853;48.190;11.860;2022-07-23T04:23:33;3.47;;;2.67;;
71979;SDS011;59853;48.190;11.860;2022-07-23T04:25:58;4.65;;;2.65;;
71979;SDS011;59853;48.190;11.860;2022-07-23T04:28:24;4.75;;;3.58;;
71979;SDS011;59853;48.190;11.860;2022-07-23T04:30:49;6.72;;;3.45;;
71979;SDS011;59853;48.190;11.860;2022-07-23T04:33:15;5.18;;;3.15;;
71979;SDS011;59853;48.190;11.860;2022-07-23T04:35:40;4.13;;;3.08;;
71979;SDS011;59853;48.190;11.860;2022-07-23T04:38:05;4.82;;;3.03;;
71979;SDS011;59853;48.190;11.860;2022-07-23T04:40:31;6.20;;;3.70;;
71979;SDS011;59853;48.190;11.860;2022-07-23T04:42:56;6.35;;;3.88;;
71979;SDS011;59853;48.190;11.860;2022-07-23T04:45:22;4.43;;;3.35;;
71979;SDS011;59853;48.190;11.860;2022-07-23T04:47:49;5.60;;;3.80;;
71979;SDS011;59853;48.190;11.860;2022-07-23T04:50:15;4.75;;;3.58;;
71979;SDS011;59853;48.190;11.860;2022-07-23T04:52:43;5.38;;;2.80;;
71979;SDS011;59853;48.190;11.860;2022-07-23T04:55:09;5.38;;;3.03;;
71979;SDS011;59853;48.190;11.860;2022-07-23T04:57:34;6.03;;;3.40;;
71979;SDS011;59853;48.190;11.860;2022-07-23T05:00:00;4.90;;;3.30;;
71979;SDS011;59853;48.190;11.860;2022-07-23T05:02:26;4.20;;;3.15;;
71979;SDS011;59853;48.190;11.860;2022-07-23T05:04:51;5.13;;;3.22;;
71979;SDS011;59853;48.190;11.860;2022-07-23T05:07:16;4.82;;;3.35;;
71979;SDS011;59853;48.190;11.860;2022-07-23T05:09:42;5.60;;;3.42;;
71979;SDS011;59853;48.190;11.860;2022-07-23T05:12:08;5.05;;;3.17;;
71979;SDS011;59853;48.190;11.860;2022-07-23T05:14:33;7.43;;;4.53;;
71979;SDS011;59853;48.190;11.860;2022-07-23T05:16:58;7.60;;;5.00;;
71979;SDS011;59853;48.190;11.860;2022-07-23T05:19:24;4.43;;;3.60;;
71979;SDS011;59853;48.190;11.860;2022-07-23T05:21:49;5.43;;;3.47;;
71979;SDS011;59853;48.190;11.860;2022-07-23T05:24:14;5.32;;;3.30;;
71979;SDS011;59853;48.190;11.860;2022-07-23T05:26:40;5.35;;;3.38;;
71979;SDS011;59853;48.190;11.860;2022-07-23T05:29:05;7.10;;;3.55;;
71979;SDS011;59853;48.190;11.860;2022-07-23T05:31:30;4.47;;;3.40;;
71979;SDS011;59853;48.190;11.860;2022-07-23T05:33:56;6.40;;;3.80;;
71979;SDS011;59853;48.190;11.860;2022-07-23T05:36:21;6.20;;;3.80;;
71979;SDS011;59853;48.190;11.860;2022-07-23T05:38:46;5.13;;;3.55;;
71979;SDS011;59853;48.190;11.860;2022-07-23T05:41:12;7.70;;;3.78;;
71979;SDS011;59853;48.190;11.860;2022-07-23T05:43:37;6.40;;;4.00;;
71979;SDS011;59853;48.190;11.860;2022-07-23T05:46:02;5.05;;;3.45;;
71979;SDS011;59853;48.190;11.860;2022-07-23T05:48:28;5.97;;;3.95;;
71979;SDS011;59853;48.190;11.860;2022-07-23T05:50:54;5.15;;;3.53;;
71979;SDS011;59853;48.190;11.860;2022-07-23T05:53:21;6.40;;;3.90;;
71979;SDS011;59853;48.190;11.860;2022-07-23T05:55:47;4.43;;;3.20;;
71979;SDS011;59853;48.190;11.860;2022-07-23T05:58:13;5.70;;;3.90;;
71979;SDS011;59853;48.190;11.860;2022-07-23T06:00:38;7.30;;;3.88;;
71979;SDS011;59853;48.190;11.860;2022-07-23T06:03:03;6.45;;;3.70;;
71979;SDS011;59853;48.190;11.860;2022-07-23T06:05:29;4.82;;;3.40;;
71979;SDS011;59853;48.190;11.860;2022-07-23T06:07:54;6.55;;;4.20;;
71979;SDS011;59853;48.190;11.860;2022-07-23T06:10:19;5.30;;;3.80;;
71979;SDS011;59853;48.190;11.860;2022-07-23T06:12:45;6.30;;;3.83;;
71979;SDS011;59853;48.190;11.860;2022-07-23T06:15:11;6.00;;;3.70;;
71979;SDS011;59853;48.190;11.860;2022-07-23T06:17:36;9.85;;;6.68;;
71979;SDS011;59853;48.190;11.860;2022-07-23T06:20:04;10.73;;;6.78;;
71979;SDS011;59853;48.190;11.860;2022-07-23T06:22:31;7.15;;;5.35;;
71979;SDS011;59853;48.190;11.860;2022-07-23T06:24:56;6.30;;;3.97;;
71979;SDS011;59853;48.190;11.860;2022-07-23T06:27:21;8.23;;;4.13;;
71979;SDS011;59853;48.190;11.860;2022-07-23T06:29:47;4.78;;;3.80;;
71979;SDS011;59853;48.190;11.860;2022-07-23T06:32:12;5.43;;;3.88;;
71979;SDS011;59853;48.190;11.860;2022-07-23T06:34:37;6.25;;;4.10;;
71979;SDS011;59853;48.190;11.860;2022-07-23T06:37:03;8.60;;;4.40;;
71979;SDS011;59853;48.190;11.860;2022-07-23T06:39:28;6.00;;;3.90;;
71979;SDS011;59853;48.190;11.860;2022-07-23T06:41:54;5.93;;;4.22;;
71979;SDS011;59853;48.190;11.860;2022-07-23T06:44:19;7.05;;;4.38;;
71979;SDS011;59853;48.190;11.860;2022-07-23T06:46:44;5.88;;;4.00;;
71979;SDS011;59853;48.190;11.860;2022-07-23T06:49:10;6.85;;;4.13;;
71979;SDS011;59853;48.190;11.860;2022-07-23T06:51:35;6.60;;;4.30;;
71979;SDS011;59853;48.190;11.860;2022-07-23T06:54:00;6.90;;;4.30;;
71979;SDS011;59853;48.190;11.860;2022-07-23T06:56:26;5.95;;;4.05;;
71979;SDS011;59853;48.190;11.860;2022-07-23T06:58:51;6.57;;;4.38;;
71979;SDS011;59853;48.190;11.860;2022-07-23T07:01:17;7.93;;;4.03;;
71979;SDS011;59853;48.190;11.860;2022-07-23T07:03:42;5.68;;;4.35;;
71979;SDS011;59853;48.190;11.860;2022-07-23T07:06:07;5.65;;;4.05;;
71979;SDS011;59853;48.190;11.860;2022-07-23T07:08:33;6.43;;;4.22;;
71979;SDS011;59853;48.190;11.860;2022-07-23T07:10:58;5.95;;;3.90;;
71979;SDS011;59853;48.190;11.860;2022-07-23T07:13:24;7.05;;;4.70;;
71979;SDS011;59853;48.190;11.860;2022-07-23T07:15:49;10.70;;;6.80;;
71979;SDS011;59853;48.190;11.860;2022-07-23T07:18:14;9.40;;;5.93;;
71979;SDS011;59853;48.190;11.860;2022-07-23T07:20:40;6.78;;;4.45;;
71979;SDS011;59853;48.190;11.860;2022-07-23T07:23:05;6.00;;;4.35;;
71979;SDS011;59853;48.190;11.860;2022-07-23T07:25:30;6.55;;;4.57;;
71979;SDS011;59853;48.190;11.860;2022-07-23T07:27:56;5.95;;;4.40;;
71979;SDS011;59853;48.190;11.860;2022-07-23T07:30:21;6.63;;;4.40;;
71979;SDS011;59853;48.190;11.860;2022-07-23T07:32:46;6.53;;;4.30;;
71979;SDS011;59853;48.190;11.860;2022-07-23T07:35:12;6.18;;;4.10;;
71979;SDS011;59853;48.190;11.860;2022-07-23T07:37:37;6.93;;;4.18;;
71979;SDS011;59853;48.190;11.860;2022-07-23T07:40:03;7.40;;;4.15;;
71979;SDS011;59853;48.190;11.860;2022-07-23T07:42:28;5.28;;;4.22;;
71979;SDS011;59853;48.190;11.860;2022-07-23T07:44:54;6.28;;;4.30;;
71979;SDS011;59853;48.190;11.860;2022-07-23T07:47:19;6.68;;;4.53;;
71979;SDS011;59853;48.190;11.860;2022-07-23T07:49:45;8.32;;;4.70;;
71979;SDS011;59853;48.190;11.860;2022-07-23T07:52:10;7.88;;;4.40;;
71979;SDS011;59853;48.190;11.860;2022-07-23T07:54:36;6.57;;;4.22;;
71979;SDS011;59853;48.190;11.860;2022-07-23T07:57:02;5.63;;;4.25;;
71979;SDS011;59853;48.190;11.860;2022-07-23T07:59:28;5.40;;;4.30;;
71979;SDS011;59853;48.190;11.860;2022-07-23T08:01:53;6.93;;;4.60;;
71979;SDS011;59853;48.190;11.860;2022-07-23T08:04:18;7.35;;;4.78;;
71979;SDS011;59853;48.190;11.860;2022-07-23T08:06:44;6.60;;;4.30;;
71979;SDS011;59853;48.190;11.860;2022-07-23T08:09:09;6.63;;;4.80;;
71979;SDS011;59853;48.190;11.860;2022-07-23T08:11:35;6.25;;;4.03;;
71979;SDS011;59853;48.190;11.860;2022-07-23T08:14:00;6.75;;;4.60;;
71979;SDS011;59853;48.190;11.860;2022-07-23T08:16:26;7.60;;;4.88;;
71979;SDS011;59853;48.190;11.860;2022-07-23T08:18:51;8.05;;;4.90;;
71979;SDS011;59853;48.190;11.860;2022-07-23T08:21:16;7.00;;;4.38;;
71979;SDS011;59853;48.190;11.860;2022-07-23T08:23:42;6.07;;;5.03;;
71979;SDS011;59853;48.190;11.860;2022-07-23T08:26:07;6.70;;;4.72;;
71979;SDS011;59853;48.190;11.860;2022-07-23T08:28:32;6.65;;;4.68;;
71979;SDS011;59853;48.190;11.860;2022-07-23T08:30:58;6.93;;;5.13;;
71979;SDS011;59853;48.190;11.860;2022-07-23T08:33:24;8.93;;;5.28;;
71979;SDS011;59853;48.190;11.860;2022-07-23T08:35:49;6.60;;;4.72;;
71979;SDS011;59853;48.190;11.860;2022-07-23T08:38:17;8.32;;;4.57;;
71979;SDS011;59853;48.190;11.860;2022-07-23T08:40:45;6.10;;;4.68;;
71979;SDS011;59853;48.190;11.860;2022-07-23T08:43:13;7.80;;;4.90;;
71979;SDS011;59853;48.190;11.860;2022-07-23T08:45:41;6.70;;;5.07;;
71979;SDS011;59853;48.190;11.860;2022-07-23T08:48:16;6.95;;;5.13;;
71979;SDS011;59853;48.190;11.860;2022-07-23T08:50:48;10.80;;;5.00;;
71979;SDS011;59853;48.190;11.860;2022-07-23T08:53:16;7.32;;;4.60;;
71979;SDS011;59853;48.190;11.860;2022-07-23T08:55:43;7.95;;;5.30;;
71979;SDS011;59853;48.190;11.860;2022-07-23T08:58:10;7.05;;;4.95;;
71979;SDS011;59853;48.190;11.860;2022-07-23T09:00:35;7.78;;;5.07;;
71979;SDS011;59853;48.190;11.860;2022-07-23T09:03:00;7.32;;;4.90;;
71979;SDS011;59853;48.190;11.860;2022-07-23T09:05:26;6.82;;;5.10;;
71979;SDS011;59853;48.190;11.860;2022-07-23T09:08:05;6.53;;;5.15;;
71979;SDS011;59853;48.190;11.860;2022-07-23T09:13:22;6.82;;;4.55;;
71979;SDS011;59853;48.190;11.860;2022-07-23T09:15:51;7.78;;;4.90;;
71979;SDS011;59853;48.190;11.860;2022-07-23T09:18:18;7.13;;;5.13;;
71979;SDS011;59853;48.190;11.860;2022-07-23T09:20:43;6.05;;;4.63;;
71979;SDS011;59853;48.190;11.860;2022-07-23T09:23:09;6.95;;;5.03;;
71979;SDS011;59853;48.190;11.860;2022-07-23T09:25:34;7.50;;;5.47;;
71979;SDS011;59853;48.190;11.860;2022-07-23T09:27:59;9.40;;;6.53;;
71979;SDS011;59853;48.190;11.860;2022-07-23T09:30:28;8.30;;;5.32;;
71979;SDS011;59853;48.190;11.860;2022-07-23T09:33:14;6.97;;;5.38;;
71979;SDS011;59853;48.190;11.860;2022-07-23T09:38:19;7.43;;;5.50;;
71979;SDS011;59853;48.190;11.860;2022-07-23T09:40:46;6.45;;;4.70;;
71979;SDS011;59853;48.190;11.860;2022-07-23T09:43:12;8.65;;;5.15;;
71979;SDS011;59853;48.190;11.860;2022-07-23T09:45:51;7.93;;;5.43;;
71979;SDS011;59853;48.190;11.860;2022-07-23T09:48:16;6.95;;;5.70;;
71979;SDS011;59853;48.190;11.860;2022-07-23T09:50:43;6.55;;;5.28;;
71979;SDS011;59853;48.190;11.860;2022-07-23T09:53:09;6.40;;;5.00;;
71979;SDS011;59853;48.190;11.860;2022-07-23T09:55:35;8.80;;;5.65;;
71979;SDS011;59853;48.190;11.860;2022-07-23T09:58:07;7.33;;;5.50;;
71979;SDS011;59853;48.190;11.860;2022-07-23T10:00:39;6.50;;;5.00;;
71979;SDS011;59853;48.190;11.860;2022-07-23T10:03:05;7.00;;;4.57;;
71979;SDS011;59853;48.190;11.860;2022-07-23T10:05:31;6.50;;;4.55;;
71979;SDS011;59853;48.190;11.860;2022-07-23T10:07:59;6.15;;;4.93;;
71979;SDS011;59853;48.190;11.860;2022-07-23T10:10:26;7.07;;;4.65;;
71979;SDS011;59853;48.190;11.860;2022-07-23T10:12:53;7.80;;;4.93;;
71979;SDS011;59853;48.190;11.860;2022-07-23T10:15:22;7.18;;;4.75;;
71979;SDS011;59853;48.190;11.860;2022-07-23T10:17:48;6.20;;;4.68;;
71979;SDS011;59853;48.190;11.860;2022-07-23T10:20:13;6.80;;;4.55;;
71979;SDS011;59853;48.190;11.860;2022-07-23T10:22:44;6.80;;;4.53;;
71979;SDS011;59853;48.190;11.860;2022-07-23T10:25:22;6.95;;;4.78;;
71979;SDS011;59853;48.190;11.860;2022-07-23T10:39:15;5.82;;;4.50;;
71979;SDS011;59853;48.190;11.860;2022-07-23T10:41:45;5.40;;;4.18;;
71979;SDS011;59853;48.190;11.860;2022-07-23T10:44:14;6.50;;;4.78;;
71979;SDS011;59853;48.190;11.860;2022-07-23T10:47:00;5.25;;;4.10;;
71979;SDS011;59853;48.190;11.860;2022-07-23T10:49:45;7.10;;;4.10;;
71979;SDS011;59853;48.190;11.860;2022-07-23T10:54:50;6.70;;;4.45;;
71979;SDS011;59853;48.190;11.860;2022-07-23T10:57:26;5.70;;;4.10;;
71979;SDS011;59853;48.190;11.860;2022-07-23T11:02:30;5.13;;;3.78;;
71979;SDS011;59853;48.190;11.860;2022-07-23T11:05:07;8.07;;;4.13;;
71979;SDS011;59853;48.190;11.860;2022-07-23T11:07:33;6.35;;;4.38;;
71979;SDS011;59853;48.190;11.860;2022-07-23T11:09:59;6.40;;;4.90;;
71979;SDS011;59853;48.190;11.860;2022-07-23T11:17:39;5.50;;;4.13;;
71979;SDS011;59853;48.190;11.860;2022-07-23T11:22:39;5.32;;;3.90;;
71979;SDS011;59853;48.190;11.860;2022-07-23T11:27:53;6.60;;;4.50;;
71979;SDS011;59853;48.190;11.860;2022-07-23T11:32:53;9.13;;;4.30;;
71979;SDS011;59853;48.190;11.860;2022-07-23T11:35:26;6.78;;;4.07;;
71979;SDS011;59853;48.190;11.860;2022-07-23T11:38:03;6.30;;;4.10;;
71979;SDS011;59853;48.190;11.860;2022-07-23T11:40:53;7.22;;;4.22;;
71979;SDS011;59853;48.190;11.860;2022-07-23T11:43:20;6.32;;;4.13;;
71979;SDS011;59853;48.190;11.860;2022-07-23T11:45:46;6.88;;;4.50;;
71979;SDS011;59853;48.190;11.860;2022-07-23T11:48:17;5.38;;;3.80;;
71979;SDS011;59853;48.190;11.860;2022-07-23T11:53:08;6.63;;;3.60;;
71979;SDS011;59853;48.190;11.860;2022-07-23T11:55:33;10.00;;;7.50;;
71979;SDS011;59853;48.190;11.860;2022-07-23T11:57:59;8.13;;;4.97;;
71979;SDS011;59853;48.190;11.860;2022-07-23T12:00:25;7.90;;;4.10;;
71979;SDS011;59853;48.190;11.860;2022-07-23T12:02:53;5.97;;;3.58;;
71979;SDS011;59853;48.190;11.860;2022-07-23T12:05:21;6.45;;;4.20;;
71979;SDS011;59853;48.190;11.860;2022-07-23T12:07:51;5.13;;;3.42;;
71979;SDS011;59853;48.190;11.860;2022-07-23T12:15:12;5.38;;;3.83;;
71979;SDS011;59853;48.190;11.860;2022-07-23T12:17:39;7.32;;;4.00;;
71979;SDS011;59853;48.190;11.860;2022-07-23T12:20:06;11.25;;;6.93;;
71979;SDS011;59853;48.190;11.860;2022-07-23T12:22:47;9.18;;;6.15;;
71979;SDS011;59853;48.190;11.860;2022-07-23T12:25:14;6.68;;;4.13;;
71979;SDS011;59853;48.190;11.860;2022-07-23T12:27:41;6.30;;;4.07;;
71979;SDS011;59853;48.190;11.860;2022-07-23T12:32:45;5.55;;;4.25;;
71979;SDS011;59853;48.190;11.860;2022-07-23T12:35:11;5.60;;;4.57;;
71979;SDS011;59853;48.190;11.860;2022-07-23T12:37:39;6.88;;;4.63;;
71979;SDS011;59853;48.190;11.860;2022-07-23T12:40:18;7.35;;;4.97;;
71979;SDS011;59853;48.190;11.860;2022-07-23T12:42:47;6.13;;;4.60;;
71979;SDS011;59853;48.190;11.860;2022-07-23T12:45:13;9.30;;;4.57;;
71979;SDS011;59853;48.190;11.860;2022-07-23T12:50:36;7.88;;;5.13;;
71979;SDS011;59853;48.190;11.860;2022-07-23T12:53:04;8.13;;;5.03;;
71979;SDS011;59853;48.190;11.860;2022-07-23T12:55:30;9.73;;;5.15;;
71979;SDS011;59853;48.190;11.860;2022-07-23T12:58:03;6.28;;;4.63;;
71979;SDS011;59853;48.190;11.860;2022-07-23T13:00:32;7.25;;;5.03;;
71979;SDS011;59853;48.190;11.860;2022-07-23T13:03:25;6.25;;;4.68;;
71979;SDS011;59853;48.190;11.860;2022-07-23T13:05:53;7.03;;;4.47;;
71979;SDS011;59853;48.190;11.860;2022-07-23T13:08:20;7.30;;;5.35;;
71979;SDS011;59853;48.190;11.860;2022-07-23T13:10:45;9.23;;;5.03;;
71979;SDS011;59853;48.190;11.860;2022-07-23T13:13:16;8.70;;;5.20;;
71979;SDS011;59853;48.190;11.860;2022-07-23T13:15:45;8.00;;;4.88;;
71979;SDS011;59853;48.190;11.860;2022-07-23T13:18:10;6.43;;;5.05;;
71979;SDS011;59853;48.190;11.860;2022-07-23T13:20:36;10.75;;;5.13;;
71979;SDS011;59853;48.190;11.860;2022-07-23T13:23:03;7.10;;;4.80;;
71979;SDS011;59853;48.190;11.860;2022-07-23T13:25:29;8.25;;;5.28;;
71979;SDS011;59853;48.190;11.860;2022-07-23T13:27:54;7.80;;;5.57;;
71979;SDS011;59853;48.190;11.860;2022-07-23T13:30:20;5.75;;;4.25;;
71979;SDS011;59853;48.190;11.860;2022-07-23T13:32:45;8.63;;;4.93;;
71979;SDS011;59853;48.190;11.860;2022-07-23T13:35:12;8.35;;;4.90;;
71979;SDS011;59853;48.190;11.860;2022-07-23T13:37:38;8.15;;;4.32;;
71979;SDS011;59853;48.190;11.860;2022-07-23T13:40:03;5.97;;;4.28;;
71979;SDS011;59853;48.190;11.860;2022-07-23T13:42:29;6.05;;;4.38;;
71979;SDS011;59853;48.190;11.860;2022-07-23T13:44:54;7.35;;;4.65;;
71979;SDS011;59853;48.190;11.860;2022-07-23T13:47:20;7.35;;;4.28;;
71979;SDS011;59853;48.190;11.860;2022-07-23T13:49:45;8.50;;;4.68;;
71979;SDS011;59853;48.190;11.860;2022-07-23T13:52:11;7.90;;;4.95;;
71979;SDS011;59853;48.190;11.860;2022-07-23T13:54:36;6.07;;;4.72;;
71979;SDS011;59853;48.190;11.860;2022-07-23T13:57:01;7.43;;;4.50;;
71979;SDS011;59853;48.190;11.860;2022-07-23T13:59:27;6.72;;;4.30;;
71979;SDS011;59853;48.190;11.860;2022-07-23T14:01:53;8.07;;;4.63;;
71979;SDS011;59853;48.190;11.860;2022-07-23T14:04:18;5.65;;;4.30;;
71979;SDS011;59853;48.190;11.860;2022-07-23T14:06:44;5.75;;;4.43;;
71979;SDS011;59853;48.190;11.860;2022-07-23T14:09:09;5.47;;;4.43;;
71979;SDS011;59853;48.190;11.860;2022-07-23T14:11:34;6.72;;;4.82;;
71979;SDS011;59853;48.190;11.860;2022-07-23T14:14:00;6.50;;;4.35;;
71979;SDS011;59853;48.190;11.860;2022-07-23T14:16:26;5.65;;;4.50;;
71979;SDS011;59853;48.190;11.860;2022-07-23T14:18:51;6.82;;;4.78;;
71979;SDS011;59853;48.190;11.860;2022-07-23T14:21:17;7.57;;;4.70;;
71979;SDS011;59853;48.190;11.860;2022-07-23T14:23:42;6.95;;;4.72;;
71979;SDS011;59853;48.190;11.860;2022-07-23T14:26:07;7.25;;;4.95;;
71979;SDS011;59853;48.190;11.860;2022-07-23T14:28:33;7.25;;;5.15;;
71979;SDS011;59853;48.190;11.860;2022-07-23T14:30:59;6.70;;;4.82;;
71979;SDS011;59853;48.190;11.860;2022-07-23T14:33:24;7.78;;;5.40;;
71979;SDS011;59853;48.190;11.860;2022-07-23T14:35:50;7.22;;;4.90;;
71979;SDS011;59853;48.190;11.860;2022-07-23T14:38:15;7.15;;;5.00;;
71979;SDS011;59853;48.190;11.860;2022-07-23T14:40:41;8.80;;;4.88;;
71979;SDS011;59853;48.190;11.860;2022-07-23T14:43:06;8.02;;;4.88;;
71979;SDS011;59853;48.190;11.860;2022-07-23T14:45:32;7.35;;;4.80;;
71979;SDS011;59853;48.190;11.860;2022-07-23T14:47:57;9.98;;;6.72;;
71979;SDS011;59853;48.190;11.860;2022-07-23T14:50:23;10.63;;;7.43;;
71979;SDS011;59853;48.190;11.860;2022-07-23T14:52:49;7.85;;;5.80;;
71979;SDS011;59853;48.190;11.860;2022-07-23T14:55:14;7.25;;;5.55;;
71979;SDS011;59853;48.190;11.860;2022-07-23T14:57:42;8.93;;;5.35;;
71979;SDS011;59853;48.190;11.860;2022-07-23T15:00:08;7.53;;;5.40;;
71979;SDS011;59853;48.190;11.860;2022-07-23T15:02:34;9.15;;;5.30;;
71979;SDS011;59853;48.190;11.860;2022-07-23T15:04:59;9.02;;;4.70;;
71979;SDS011;59853;48.190;11.860;2022-07-23T15:07:28;7.68;;;5.30;;
71979;SDS011;59853;48.190;11.860;2022-07-23T15:09:54;7.22;;;5.18;;
71979;SDS011;59853;48.190;11.860;2022-07-23T15:12:20;6.82;;;5.00;;
71979;SDS011;59853;48.190;11.860;2022-07-23T15:14:45;6.78;;;5.03;;
71979;SDS011;59853;48.190;11.860;2022-07-23T15:17:11;7.65;;;5.10;;